Time;durP1;ratioP1;P1;durP2;ratioP2;P2;SDS_P1;SDS_P2;PMS_P1;PMS_P2;Temp;Humidity;BMP_temperature;BMP_pressure;BME280_temperature;BME280_humidity;BME280_pressure;Samples;Min_cycle;Max_cycle;Signal;HPM_P1;HPM_P2
2021/04/13 00:01:15;;;;;;;;;;;0.00;99.90;;;;;;4814974;29;19932;-83
2021/04/13 00:03:43;;;;;;;;;;;0.00;99.90;;;;;;4802500;29;19925;-83
2021/04/13 00:06:14;;;;;;;;;;;0.00;99.90;;;;;;4803672;29;19933;-83
2021/04/13 00:08:45;;;;;;;;;;;0.00;99.90;;;;;;4788655;29;19925;-83
2021/04/13 00:11:12;;;;;;;;;;;0.00;99.90;;;;;;4809876;29;19925;-83
2021/04/13 00:13:39;;;;;;;;;;;0.00;99.90;;;;;;4807852;29;19945;-83
2021/04/13 00:16:11;;;;;;;;;;;0.00;99.90;;;;;;4824555;29;19931;-83
2021/04/13 00:18:52;;;;;;;;;;;0.00;99.90;;;;;;4810113;29;20376;-83
2021/04/13 00:21:20;;;;;;;;;;;0.00;99.90;;;;;;4824402;29;19936;-83
2021/04/13 00:23:47;;;;;;;;;;;0.00;99.90;;;;;;4824173;29;19928;-83
2021/04/13 00:26:19;;;;;;;;;;;0.00;99.90;;;;;;4823650;29;19959;-83
2021/04/13 00:28:48;;;;;;;;;;;0.00;99.90;;;;;;4823766;29;19929;-83
2021/04/13 00:31:38;;;;;;;;;;;0.10;99.90;;;;;;4823362;29;19928;-77
2021/04/13 00:34:08;;;;;;;;;;;0.10;99.90;;;;;;4823777;29;19932;-83
2021/04/13 00:36:36;;;;;;;;;;;0.10;99.90;;;;;;4808190;29;19928;-83
2021/04/13 00:39:14;;;;;;;;;;;0.00;99.90;;;;;;4816139;29;20288;-83
2021/04/13 00:41:43;;;;;;;;;;;0.00;99.90;;;;;;4805184;29;19933;-83
2021/04/13 00:44:10;;;;;;;;;;;0.00;99.90;;;;;;4805889;29;20364;-83
2021/04/13 00:46:41;;;;;;;;;;;0.00;99.90;;;;;;4788210;29;19925;-83
2021/04/13 00:49:10;;;;;;;;;;;0.00;99.90;;;;;;4804880;29;20311;-83
2021/04/13 00:51:42;;;;;;;;;;;0.00;99.90;;;;;;4805868;29;19936;-83
2021/04/13 00:54:12;;;;;;;;;;;0.00;99.90;;;;;;4804960;29;19933;-82
2021/04/13 00:56:40;;;;;;;;;;;0.00;99.90;;;;;;4789918;29;19933;-83
2021/04/13 00:59:11;;;;;;;;;;;0.00;99.90;;;;;;4789324;29;19928;-83
2021/04/13 01:01:42;;;;;;;;;;;0.00;99.90;;;;;;4804723;29;19929;-82
2021/04/13 01:04:19;;;;;;;;;;;0.00;99.90;;;;;;4805998;29;19928;-82
2021/04/13 01:06:56;;;;;;;;;;;0.00;99.90;;;;;;4805687;29;19936;-82
2021/04/13 01:09:24;;;;;;;;;;;0.10;99.90;;;;;;4805161;29;19925;-82
2021/04/13 01:11:54;;;;;;;;;;;0.00;99.90;;;;;;4804731;29;19932;-82
2021/04/13 01:14:23;;;;;;;;;;;0.00;99.90;;;;;;4804936;29;19925;-82
2021/04/13 01:16:54;;;;;;;;;;;0.00;99.90;;;;;;4805443;29;19925;-82
2021/04/13 01:19:37;;;;;;;;;;;0.00;99.90;;;;;;4785869;30;19929;-81
2021/04/13 01:22:13;;;;;;;;;;;0.00;99.90;;;;;;4786938;29;19929;-82
2021/04/13 01:24:50;;;;;;;;;;;0.00;99.90;;;;;;4771534;30;19933;-81
2021/04/13 01:27:21;;;;;;;;;;;0.00;99.90;;;;;;4786888;30;19926;-81
2021/04/13 01:29:49;;;;;;;;;;;0.00;99.90;;;;;;4786349;29;19930;-81
2021/04/13 01:32:18;;;;;;;;;;;0.00;99.90;;;;;;4787265;30;19937;-81
2021/04/13 01:35:07;;;;;;;;;;;0.00;99.90;;;;;;4778710;29;19947;-81
2021/04/13 01:38:05;;;;;;;;;;;0.00;99.90;;;;;;4823019;29;19928;-81
2021/04/13 01:40:43;;;;;;;;;;;0.00;99.90;;;;;;4806986;29;20378;-81
2021/04/13 01:43:10;;;;;;;;;;;0.00;99.90;;;;;;4822697;29;19929;-81
2021/04/13 01:45:39;;;;;;;;;;;0.00;99.90;;;;;;4821835;29;19936;-81
2021/04/13 01:48:07;;;;;;;;;;;0.00;99.90;;;;;;4822894;29;19932;-81
2021/04/13 01:50:38;;;;;;;;;;;0.00;99.90;;;;;;4822834;29;19924;-81
2021/04/13 01:53:08;;;;;;;;;;;0.00;99.90;;;;;;4822924;29;19928;-81
2021/04/13 01:55:37;;;;;;;;;;;0.00;99.90;;;;;;4807174;29;19924;-81
2021/04/13 01:58:07;;;;;;;;;;;0.00;99.90;;;;;;4792009;29;19932;-81
2021/04/13 02:00:51;;;;;;;;;;;0.00;99.90;;;;;;4756257;30;19936;-83
2021/04/13 02:03:26;;;;;;;;;;;0.00;99.90;;;;;;4786695;29;19925;-82
2021/04/13 02:05:57;;;;;;;;;;;0.00;99.90;;;;;;4786174;30;20518;-83
2021/04/13 02:08:29;;;;;;;;;;;0.00;99.90;;;;;;4789031;29;19925;-84
2021/04/13 02:11:00;;;;;;;;;;;0.00;99.90;;;;;;4787860;29;19936;-84
2021/04/13 02:13:48;;;;;;;;;;;0.00;99.90;;;;;;4777349;29;19942;-84
2021/04/13 02:16:24;;;;;;;;;;;0.00;99.90;;;;;;4804783;29;19925;-84
2021/04/13 02:18:52;;;;;;;;;;;0.00;99.90;;;;;;4772886;29;20352;-85
2021/04/13 02:21:22;;;;;;;;;;;0.00;99.90;;;;;;4804490;29;19929;-84
2021/04/13 02:23:52;;;;;;;;;;;-0.10;99.90;;;;;;4787835;29;19932;-85
2021/04/13 02:26:44;;;;;;;;;;;-0.10;99.90;;;;;;4760584;29;19932;-85
2021/04/13 02:29:13;;;;;;;;;;;-0.10;99.90;;;;;;4772863;29;19925;-85
2021/04/13 02:31:50;;;;;;;;;;;-0.10;99.90;;;;;;4772956;29;19946;-85
2021/04/13 02:34:29;;;;;;;;;;;-0.10;99.90;;;;;;4788172;29;19929;-85
2021/04/13 02:36:59;;;;;;;;;;;-0.10;99.90;;;;;;4788729;29;19935;-85
2021/04/13 02:39:46;;;;;;;;;;;-0.10;99.90;;;;;;4779602;29;19951;-85
2021/04/13 02:42:20;;;;;;;;;;;0.00;99.90;;;;;;4766826;29;19928;-86
2021/04/13 02:45:00;;;;;;;;;;;-0.10;99.90;;;;;;4773021;29;19940;-86
2021/04/13 02:48:04;;;;;;;;;;;-0.10;99.90;;;;;;4757754;29;19929;-86
2021/04/13 02:51:16;;;;;;;;;;;0.00;99.90;;;;;;4754855;30;19944;-86
2021/04/13 02:54:14;;;;;;;;;;;;;;;;;;;;;
2021/04/13 02:58:07;;;;;;;;;;;;;;;;;;;;;
2021/04/13 03:01:16;;;;;;;;;;;0.00;99.90;;;;;;4719610;30;19942;-85
2021/04/13 03:04:46;;;;;;;;;;;-0.10;99.90;;;;;;4677365;30;19922;-85
2021/04/13 03:08:23;;;;;;;;;;;0.10;99.90;;;;;;4695938;30;19926;-85
2021/04/13 03:11:28;;;;;;;;;;;0.00;99.90;;;;;;4746075;29;19929;-85
2021/04/13 03:15:02;;;;;;;;;;;0.10;99.90;;;;;;4776629;29;19928;-85
2021/04/13 03:19:01;;;;;;;;;;;0.20;99.90;;;;;;4747975;30;20404;-85
2021/04/13 03:27:36;;;;;;;;;;;0.10;99.90;;;;;;4671975;30;19927;-85
2021/04/13 03:31:08;;;;;;;;;;;0.00;99.90;;;;;;4606415;30;19928;-85
2021/04/13 03:34:55;;;;;;;;;;;0.00;99.90;;;;;;4620394;30;19928;-85
2021/04/13 03:38:27;;;;;;;;;;;0.00;99.90;;;;;;4691183;30;19930;-85
2021/04/13 03:41:42;;;;;;;;;;;0.00;99.90;;;;;;4691593;30;19923;-86
2021/04/13 03:44:44;;;;;;;;;;;0.00;99.90;;;;;;4692000;30;19932;-86
2021/04/13 03:48:11;;;;;;;;;;;0.00;99.90;;;;;;4643274;30;20283;-86
2021/04/13 03:51:05;;;;;;;;;;;0.00;99.90;;;;;;4663591;30;19935;-86
2021/04/13 03:54:10;;;;;;;;;;;-0.10;99.90;;;;;;4654910;30;19928;-86
2021/04/13 03:57:51;;;;;;;;;;;-0.10;99.90;;;;;;4605754;31;20089;-86
2021/04/13 04:00:53;;;;;;;;;;;-0.20;99.90;;;;;;4607337;31;19929;-86
2021/04/13 04:08:53;;;;;;;;;;;-0.10;99.90;;;;;;4614238;31;20313;-85
2021/04/13 04:12:00;;;;;;;;;;;-0.20;99.90;;;;;;4605836;31;19932;-85
2021/04/13 04:15:01;;;;;;;;;;;-0.20;99.90;;;;;;4647012;30;19928;-79
2021/04/13 04:17:30;;;;;;;;;;;-0.20;99.90;;;;;;4649394;30;19939;-79
2021/04/13 04:20:02;;;;;;;;;;;-0.10;99.90;;;;;;4666765;30;19928;-84
2021/04/13 04:22:46;;;;;;;;;;;-0.10;99.90;;;;;;4761463;29;20010;-83
2021/04/13 04:25:16;;;;;;;;;;;-0.10;99.90;;;;;;4769872;30;19926;-83
2021/04/13 04:27:44;;;;;;;;;;;-0.20;99.90;;;;;;4770083;30;19929;-83
2021/04/13 04:30:22;;;;;;;;;;;-0.10;99.90;;;;;;4753537;30;19933;-83
2021/04/13 04:32:49;;;;;;;;;;;-0.20;99.90;;;;;;4770517;30;19930;-83
2021/04/13 04:35:40;;;;;;;;;;;-0.10;99.90;;;;;;4770015;29;20277;-84
2021/04/13 04:38:18;;;;;;;;;;;-0.10;99.90;;;;;;4795746;29;19932;-84
2021/04/13 04:40:52;;;;;;;;;;;-0.20;99.90;;;;;;4787189;30;19941;-84
2021/04/13 04:43:54;;;;;;;;;;;-0.10;99.90;;;;;;4771517;30;19933;-85
2021/04/13 04:46:40;;;;;;;;;;;-0.10;99.90;;;;;;4787238;29;19926;-84
2021/04/13 04:49:32;;;;;;;;;;;-0.20;99.90;;;;;;4780412;30;19957;-86
2021/04/13 04:52:09;;;;;;;;;;;-0.20;99.90;;;;;;4786642;30;19937;-84
2021/04/13 04:55:04;;;;;;;;;;;-0.10;99.90;;;;;;4778710;29;20368;-86
2021/04/13 04:58:07;;;;;;;;;;;-0.20;99.90;;;;;;4788783;29;19935;-86
2021/04/13 05:00:34;;;;;;;;;;;-0.20;99.90;;;;;;4790159;29;20394;-82
2021/04/13 05:03:01;;;;;;;;;;;-0.20;99.90;;;;;;4805485;29;19929;-84
2021/04/13 05:05:29;;;;;;;;;;;-0.20;99.90;;;;;;4806044;29;20414;-82
2021/04/13 05:07:56;;;;;;;;;;;-0.10;99.90;;;;;;4796526;29;20296;-83
2021/04/13 05:10:23;;;;;;;;;;;-0.10;99.90;;;;;;4789136;29;19926;-81
2021/04/13 05:12:50;;;;;;;;;;;0.00;99.90;;;;;;4788469;30;20384;-82
2021/04/13 05:15:17;;;;;;;;;;;0.00;99.90;;;;;;4787506;30;19926;-82
2021/04/13 05:17:44;;;;;;;;;;;0.00;99.90;;;;;;4788413;29;19929;-83
2021/04/13 05:20:12;;;;;;;;;;;0.00;99.90;;;;;;4787447;30;19940;-83
2021/04/13 05:22:40;;;;;;;;;;;0.10;99.90;;;;;;4787499;30;19937;-83
2021/04/13 05:25:07;;;;;;;;;;;0.10;99.90;;;;;;4787271;29;19925;-82
2021/04/13 05:27:35;;;;;;;;;;;0.10;99.90;;;;;;4786860;30;19936;-83
2021/04/13 05:30:04;;;;;;;;;;;0.20;99.90;;;;;;4785022;29;19967;-83
2021/04/13 05:32:31;;;;;;;;;;;0.20;99.90;;;;;;4796999;29;19929;-83
2021/04/13 05:34:58;;;;;;;;;;;0.30;99.90;;;;;;4791703;29;19936;-83
2021/04/13 05:37:28;;;;;;;;;;;0.30;99.90;;;;;;4772866;29;19977;-84
2021/04/13 05:39:56;;;;;;;;;;;0.40;99.90;;;;;;4792417;29;19929;-87
2021/04/13 05:42:25;;;;;;;;;;;0.40;99.90;;;;;;4783786;29;19960;-79
2021/04/13 05:44:53;;;;;;;;;;;0.40;99.90;;;;;;4781507;29;19934;-81
2021/04/13 05:47:20;;;;;;;;;;;0.40;99.90;;;;;;4783848;29;20298;-82
2021/04/13 05:49:48;;;;;;;;;;;0.40;99.90;;;;;;4787588;29;19944;-82
2021/04/13 05:52:15;;;;;;;;;;;0.40;99.90;;;;;;4756102;30;19934;-82
2021/04/13 05:54:42;;;;;;;;;;;0.40;99.90;;;;;;4803170;29;19932;-83
2021/04/13 05:57:12;;;;;;;;;;;0.50;99.90;;;;;;4777463;30;20361;-83
2021/04/13 05:59:40;;;;;;;;;;;0.50;99.90;;;;;;4752726;30;19930;-84
2021/04/13 06:02:10;;;;;;;;;;;0.50;99.90;;;;;;4768244;30;20377;-84
2021/04/13 06:04:37;;;;;;;;;;;0.60;99.90;;;;;;4768929;30;20296;-84
2021/04/13 06:07:04;;;;;;;;;;;0.60;99.90;;;;;;4770398;30;19925;-84
2021/04/13 06:09:32;;;;;;;;;;;0.70;99.90;;;;;;4769300;29;19926;-83
2021/04/13 06:11:59;;;;;;;;;;;0.70;99.90;;;;;;4780194;29;19930;-84
2021/04/13 06:14:28;;;;;;;;;;;0.70;99.90;;;;;;4768650;29;20018;-83
2021/04/13 06:16:56;;;;;;;;;;;0.70;99.90;;;;;;4776593;30;19934;-83
2021/04/13 06:19:25;;;;;;;;;;;0.80;99.90;;;;;;4763161;30;19936;-83
2021/04/13 06:21:56;;;;;;;;;;;0.80;99.90;;;;;;4778509;30;20006;-83
2021/04/13 06:24:24;;;;;;;;;;;0.90;99.90;;;;;;4781615;30;19933;-80
2021/04/13 06:26:51;;;;;;;;;;;1.00;99.90;;;;;;4776115;30;19937;-80
2021/04/13 06:29:26;;;;;;;;;;;1.10;99.90;;;;;;4767374;30;19926;-81
2021/04/13 06:31:53;;;;;;;;;;;1.10;99.90;;;;;;4768380;30;19950;-81
2021/04/13 06:34:21;;;;;;;;;;;1.10;99.90;;;;;;4769863;29;20485;-80
2021/04/13 06:36:48;;;;;;;;;;;1.10;99.90;;;;;;4784110;29;19932;-84
2021/04/13 06:39:15;;;;;;;;;;;1.10;99.90;;;;;;4758539;30;19930;-84
2021/04/13 06:41:53;;;;;;;;;;;1.10;99.90;;;;;;4744390;30;19926;-85
2021/04/13 06:44:26;;;;;;;;;;;1.00;99.90;;;;;;4776927;30;20409;-87
2021/04/13 06:47:14;;;;;;;;;;;1.00;99.90;;;;;;4776591;29;19936;-85
2021/04/13 06:49:51;;;;;;;;;;;1.10;99.90;;;;;;4768653;29;19933;-85
2021/04/13 06:52:39;;;;;;;;;;;1.10;99.90;;;;;;4776269;29;19937;-86
2021/04/13 06:55:22;;;;;;;;;;;1.00;99.90;;;;;;4774268;29;19933;-84
2021/04/13 06:58:05;;;;;;;;;;;1.10;99.90;;;;;;4795045;29;20303;-84
2021/04/13 07:00:51;;;;;;;;;;;1.10;99.90;;;;;;4771959;29;20328;-84
2021/04/13 07:03:22;;;;;;;;;;;1.10;99.90;;;;;;4799394;29;19932;-85
2021/04/13 07:05:53;;;;;;;;;;;1.10;99.90;;;;;;4792714;29;20253;-85
2021/04/13 07:08:20;;;;;;;;;;;1.20;99.90;;;;;;4800438;29;20371;-84
2021/04/13 07:10:54;;;;;;;;;;;1.20;99.90;;;;;;4780520;29;19925;-85
2021/04/13 07:13:23;;;;;;;;;;;1.30;99.90;;;;;;4802293;29;19929;-84
2021/04/13 07:16:12;;;;;;;;;;;1.30;99.90;;;;;;4803059;29;19936;-84
2021/04/13 07:18:43;;;;;;;;;;;1.30;99.90;;;;;;4801883;29;19925;-86
2021/04/13 07:21:13;;;;;;;;;;;1.20;99.90;;;;;;4784503;29;19929;-82
2021/04/13 07:23:43;;;;;;;;;;;1.30;99.90;;;;;;4769729;30;19932;-79
2021/04/13 07:26:19;;;;;;;;;;;1.40;99.90;;;;;;4785297;30;19933;-80
2021/04/13 07:29:12;;;;;;;;;;;1.50;99.90;;;;;;4784886;30;19929;-80
2021/04/13 07:31:53;;;;;;;;;;;1.70;99.90;;;;;;4767549;29;19940;-79
2021/04/13 07:34:21;;;;;;;;;;;1.80;99.90;;;;;;4786553;29;19929;-79
2021/04/13 07:37:10;;;;;;;;;;;1.70;99.90;;;;;;4777012;30;20708;-79
2021/04/13 07:39:38;;;;;;;;;;;1.70;99.90;;;;;;4792512;29;19925;-79
2021/04/13 07:42:19;;;;;;;;;;;1.70;99.90;;;;;;4769736;29;19932;-79
2021/04/13 07:44:51;;;;;;;;;;;1.80;99.90;;;;;;4787617;29;19936;-78
2021/04/13 07:47:24;;;;;;;;;;;2.00;99.90;;;;;;4803297;29;19925;-79
2021/04/13 07:49:57;;;;;;;;;;;2.00;99.60;;;;;;4784690;29;19925;-79
2021/04/13 07:52:50;;;;;;;;;;;2.10;99.50;;;;;;4788955;29;19929;-79
2021/04/13 07:55:35;;;;;;;;;;;2.20;99.60;;;;;;4797430;29;19925;-79
2021/04/13 07:58:14;;;;;;;;;;;2.20;99.00;;;;;;4785722;29;19933;-80
2021/04/13 08:00:46;;;;;;;;;;;2.30;99.00;;;;;;4798521;29;19929;-79
2021/04/13 08:03:13;;;;;;;;;;;2.30;98.90;;;;;;4808777;29;19928;-80
2021/04/13 08:05:46;;;;;;;;;;;2.30;98.50;;;;;;4805308;29;20422;-80
2021/04/13 08:08:35;;;;;;;;;;;2.30;98.50;;;;;;4776111;29;19932;-80
2021/04/13 08:11:08;;;;;;;;;;;2.50;98.60;;;;;;4783873;29;19951;-82
2021/04/13 08:13:37;;;;;;;;;;;2.60;98.30;;;;;;4791614;29;19925;-81
2021/04/13 08:16:06;;;;;;;;;;;2.60;97.90;;;;;;4789378;29;19932;-80
2021/04/13 08:18:38;;;;;;;;;;;2.60;98.30;;;;;;4780684;29;19933;-81
2021/04/13 08:21:14;;;;;;;;;;;2.60;98.40;;;;;;4804608;29;19925;-81
2021/04/13 08:23:44;;;;;;;;;;;2.60;98.10;;;;;;4775984;29;20649;-84
2021/04/13 08:26:40;;;;;;;;;;;2.60;98.00;;;;;;4797297;29;19962;-85
2021/04/13 08:29:17;;;;;;;;;;;2.70;98.30;;;;;;4792718;29;19931;-85
2021/04/13 08:35:27;;;;;;;;;;;2.90;98.10;;;;;;4769422;29;19929;-86
2021/04/13 08:38:16;;;;;;;;;;;2.90;98.10;;;;;;4720224;30;19930;-85
2021/04/13 08:41:37;;;;;;;;;;;3.00;97.90;;;;;;4798850;29;20335;-83
2021/04/13 08:44:16;;;;;;;;;;;3.10;97.60;;;;;;4802776;29;19936;-83
2021/04/13 08:46:50;;;;;;;;;;;3.10;96.70;;;;;;4811127;29;19929;-82
2021/04/13 08:49:38;;;;;;;;;;;3.20;96.80;;;;;;4790897;29;19929;-84
2021/04/13 08:52:24;;;;;;;;;;;3.40;96.60;;;;;;4795871;29;19932;-81
2021/04/13 08:54:59;;;;;;;;;;;3.40;96.30;;;;;;4803741;29;19951;-81
2021/04/13 08:57:32;;;;;;;;;;;3.20;96.00;;;;;;4786704;29;19929;-79
2021/04/13 09:00:29;;;;;;;;;;;3.30;96.80;;;;;;4757137;30;19933;-78
2021/04/13 09:03:02;;;;;;;;;;;3.50;95.70;;;;;;4788628;29;19944;-77
2021/04/13 09:05:31;;;;;;;;;;;3.50;96.10;;;;;;4788270;29;20621;-77
2021/04/13 09:08:03;;;;;;;;;;;3.40;96.20;;;;;;4803560;29;19932;-75
2021/04/13 09:10:46;;;;;;;;;;;3.10;96.60;;;;;;4803892;29;19929;-75
2021/04/13 09:13:13;;;;;;;;;;;2.80;96.30;;;;;;4788830;29;19936;-77
2021/04/13 09:15:53;;;;;;;;;;;2.50;97.20;;;;;;4804275;29;19929;-77
2021/04/13 09:18:41;;;;;;;;;;;2.50;98.60;;;;;;4787992;29;19928;-77
2021/04/13 09:21:08;;;;;;;;;;;2.80;97.90;;;;;;4785988;29;19926;-77
2021/04/13 09:24:15;;;;;;;;;;;3.20;97.20;;;;;;4762031;29;20383;-76
2021/04/13 09:26:54;;;;;;;;;;;3.40;96.00;;;;;;4814687;29;19925;-77
2021/04/13 09:29:40;;;;;;;;;;;3.20;96.20;;;;;;4803901;29;20390;-77
2021/04/13 09:32:23;;;;;;;;;;;3.30;96.70;;;;;;4804374;29;20459;-77
2021/04/13 09:34:53;;;;;;;;;;;3.40;97.20;;;;;;4804006;29;19925;-77
2021/04/13 09:37:31;;;;;;;;;;;3.90;96.20;;;;;;4804693;29;19929;-77
2021/04/13 09:40:10;;;;;;;;;;;4.10;95.50;;;;;;4803098;29;19932;-77
2021/04/13 09:42:37;;;;;;;;;;;4.50;95.60;;;;;;4788224;29;19936;-78
2021/04/13 09:45:17;;;;;;;;;;;4.70;94.50;;;;;;4801818;29;19936;-78
2021/04/13 09:47:59;;;;;;;;;;;5.00;94.00;;;;;;4803154;29;19924;-78
2021/04/13 09:50:49;;;;;;;;;;;4.90;93.50;;;;;;4804068;29;19925;-78
2021/04/13 09:53:24;;;;;;;;;;;4.50;93.40;;;;;;4800501;29;19933;-78
2021/04/13 09:56:03;;;;;;;;;;;4.40;94.70;;;;;;4804119;29;20295;-78
2021/04/13 09:58:30;;;;;;;;;;;4.50;95.00;;;;;;4786270;29;19948;-78
2021/04/13 10:01:07;;;;;;;;;;;4.60;94.80;;;;;;4781744;30;20376;-78
2021/04/13 10:03:53;;;;;;;;;;;4.90;94.20;;;;;;4784635;30;20093;-75
2021/04/13 10:06:25;;;;;;;;;;;5.10;93.30;;;;;;4786879;29;19924;-75
2021/04/13 10:08:58;;;;;;;;;;;5.10;93.40;;;;;;4787338;29;20287;-76
2021/04/13 10:11:31;;;;;;;;;;;5.10;93.30;;;;;;4802841;29;19947;-75
2021/04/13 10:14:17;;;;;;;;;;;5.20;94.40;;;;;;4802861;29;19932;-75
2021/04/13 10:16:56;;;;;;;;;;;4.90;92.40;;;;;;4802422;29;19933;-76
2021/04/13 10:19:46;;;;;;;;;;;4.40;93.90;;;;;;4802542;29;19933;-75
2021/04/13 10:22:26;;;;;;;;;;;4.20;93.80;;;;;;4803390;29;19933;-75
2021/04/13 10:25:02;;;;;;;;;;;3.70;94.80;;;;;;4801273;29;20363;-77
2021/04/13 10:27:42;;;;;;;;;;;3.50;95.70;;;;;;4799398;29;19933;-77
2021/04/13 10:30:35;;;;;;;;;;;3.60;95.90;;;;;;4802144;29;19929;-77
2021/04/13 10:33:09;;;;;;;;;;;3.70;94.40;;;;;;4782309;29;19929;-77
2021/04/13 10:35:37;;;;;;;;;;;3.80;94.20;;;;;;4803661;29;19940;-77
2021/04/13 10:38:13;;;;;;;;;;;4.10;94.90;;;;;;4800025;29;19929;-77
2021/04/13 10:41:12;;;;;;;;;;;4.00;95.60;;;;;;4790133;29;19929;-77
2021/04/13 10:43:54;;;;;;;;;;;3.90;95.90;;;;;;4789137;29;19936;-77
2021/04/13 10:46:42;;;;;;;;;;;4.00;96.00;;;;;;4785153;30;19929;-76
2021/04/13 10:49:51;;;;;;;;;;;4.00;95.70;;;;;;4754221;30;19932;-79
2021/04/13 10:52:27;;;;;;;;;;;3.90;95.80;;;;;;4797990;29;19925;-77
2021/04/13 10:55:01;;;;;;;;;;;4.00;95.50;;;;;;4798856;29;19929;-77
2021/04/13 10:57:37;;;;;;;;;;;4.20;96.90;;;;;;4802983;29;19925;-78
2021/04/13 11:00:05;;;;;;;;;;;4.20;95.60;;;;;;4784963;29;20379;-78
2021/04/13 11:02:48;;;;;;;;;;;4.00;94.60;;;;;;4807217;29;19932;-78
2021/04/13 11:05:33;;;;;;;;;;;4.10;95.50;;;;;;4802190;29;19929;-76
2021/04/13 11:08:04;;;;;;;;;;;4.00;95.50;;;;;;4789703;29;19929;-75
2021/04/13 11:10:50;;;;;;;;;;;3.90;96.70;;;;;;4800334;29;19929;-76
2021/04/13 11:13:31;;;;;;;;;;;4.00;95.90;;;;;;4802511;29;19925;-76
2021/04/13 11:16:31;;;;;;;;;;;4.20;95.60;;;;;;4804509;29;19925;-76
2021/04/13 11:18:59;;;;;;;;;;;4.10;93.60;;;;;;4799214;29;19925;-76
2021/04/13 11:21:53;;;;;;;;;;;4.30;93.00;;;;;;4796164;29;19925;-76
2021/04/13 11:24:28;;;;;;;;;;;4.10;93.40;;;;;;4801923;29;19932;-75
2021/04/13 11:27:17;;;;;;;;;;;4.20;93.80;;;;;;4802238;29;20378;-76
2021/04/13 11:30:05;;;;;;;;;;;3.90;95.50;;;;;;4786447;29;19929;-75
2021/04/13 11:32:32;;;;;;;;;;;3.60;95.50;;;;;;4789979;29;19936;-76
2021/04/13 11:35:14;;;;;;;;;;;3.40;94.50;;;;;;4792196;29;19929;-76
2021/04/13 11:37:54;;;;;;;;;;;3.10;97.00;;;;;;4818707;29;19929;-76
2021/04/13 11:40:40;;;;;;;;;;;3.20;95.80;;;;;;4805836;29;19929;-77
2021/04/13 11:43:10;;;;;;;;;;;3.20;96.50;;;;;;4806153;29;20287;-77
2021/04/13 11:45:50;;;;;;;;;;;3.00;97.70;;;;;;4806396;29;19951;-77
2021/04/13 11:48:17;;;;;;;;;;;3.10;97.90;;;;;;4805502;29;19936;-77
2021/04/13 11:50:55;;;;;;;;;;;2.90;98.10;;;;;;4806216;29;19936;-78
2021/04/13 11:53:31;;;;;;;;;;;2.80;98.00;;;;;;4790431;29;19929;-78
2021/04/13 11:55:59;;;;;;;;;;;2.60;99.50;;;;;;4805832;29;19929;-78
2021/04/13 11:58:33;;;;;;;;;;;2.60;97.90;;;;;;4786781;30;19933;-77
2021/04/13 12:01:12;;;;;;;;;;;2.60;98.10;;;;;;4787578;30;20364;-78
2021/04/13 12:03:55;;;;;;;;;;;2.60;98.40;;;;;;4787475;30;19925;-79
2021/04/13 12:06:42;;;;;;;;;;;2.70;99.60;;;;;;4795568;29;19929;-79
2021/04/13 12:09:09;;;;;;;;;;;2.80;98.50;;;;;;4775020;29;19936;-78
2021/04/13 12:11:38;;;;;;;;;;;2.70;96.70;;;;;;4810434;29;19925;-78
2021/04/13 12:14:22;;;;;;;;;;;2.90;97.10;;;;;;4806260;29;19935;-79
2021/04/13 12:16:50;;;;;;;;;;;3.00;96.70;;;;;;4807750;29;20295;-79
2021/04/13 12:19:18;;;;;;;;;;;3.20;96.40;;;;;;4806915;29;19935;-80
2021/04/13 12:21:46;;;;;;;;;;;3.60;95.60;;;;;;4816379;29;19929;-82
2021/04/13 12:24:21;;;;;;;;;;;3.90;95.70;;;;;;4795424;29;19924;-81
2021/04/13 12:26:48;;;;;;;;;;;4.20;95.50;;;;;;4795424;29;20287;-81
2021/04/13 12:29:24;;;;;;;;;;;4.50;94.40;;;;;;4777597;29;20304;-80
2021/04/13 12:32:27;;;;;;;;;;;4.40;91.80;;;;;;4818563;29;19944;-80
2021/04/13 12:34:57;;;;;;;;;;;4.40;94.10;;;;;;4793850;29;20276;-79
2021/04/13 12:37:42;;;;;;;;;;;4.30;93.50;;;;;;4794817;29;19929;-82
2021/04/13 12:40:18;;;;;;;;;;;4.40;94.90;;;;;;4803759;29;19928;-83
2021/04/13 12:42:54;;;;;;;;;;;4.30;94.00;;;;;;4787034;29;19925;-80
2021/04/13 12:45:23;;;;;;;;;;;4.50;93.00;;;;;;4788279;29;19924;-81
2021/04/13 12:48:10;;;;;;;;;;;4.70;93.00;;;;;;4784219;29;19929;-81
2021/04/13 12:50:45;;;;;;;;;;;4.60;91.40;;;;;;4786488;29;19929;-81
2021/04/13 12:53:17;;;;;;;;;;;4.40;92.30;;;;;;4787116;29;19936;-80
2021/04/13 12:55:44;;;;;;;;;;;4.50;92.60;;;;;;4805999;29;19932;-80
2021/04/13 12:58:42;;;;;;;;;;;4.30;92.90;;;;;;4770960;30;19933;-81
2021/04/13 13:01:17;;;;;;;;;;;4.30;95.40;;;;;;4772087;30;19932;-80
2021/04/13 13:03:45;;;;;;;;;;;4.30;94.40;;;;;;4787059;29;20093;-80
2021/04/13 13:06:14;;;;;;;;;;;4.30;93.80;;;;;;4777945;29;19928;-80
2021/04/13 13:08:42;;;;;;;;;;;4.20;92.20;;;;;;4789358;29;19940;-80
2021/04/13 13:11:11;;;;;;;;;;;3.90;93.00;;;;;;4788460;29;19932;-80
2021/04/13 13:13:40;;;;;;;;;;;3.70;94.10;;;;;;4805318;29;20471;-80
2021/04/13 13:16:12;;;;;;;;;;;3.70;94.20;;;;;;4804184;29;20407;-80
2021/04/13 13:18:42;;;;;;;;;;;3.60;93.40;;;;;;4788928;29;19925;-80
2021/04/13 13:21:14;;;;;;;;;;;3.50;94.60;;;;;;4805063;29;19930;-81
2021/04/13 13:23:42;;;;;;;;;;;3.60;94.30;;;;;;4804284;29;20299;-80
2021/04/13 13:26:16;;;;;;;;;;;3.60;96.10;;;;;;4805519;29;19928;-80
2021/04/13 13:28:44;;;;;;;;;;;3.50;95.40;;;;;;4788454;29;19928;-80
2021/04/13 13:31:16;;;;;;;;;;;3.20;96.40;;;;;;4804577;29;20033;-80
2021/04/13 13:33:44;;;;;;;;;;;3.10;96.90;;;;;;4774165;29;19936;-81
2021/04/13 13:36:14;;;;;;;;;;;3.10;97.40;;;;;;4796711;29;19925;-80
2021/04/13 13:38:42;;;;;;;;;;;2.90;97.90;;;;;;4804699;29;19936;-81
2021/04/13 13:41:11;;;;;;;;;;;2.80;98.50;;;;;;4804807;29;19925;-80
2021/04/13 13:43:38;;;;;;;;;;;2.80;98.40;;;;;;4787481;29;19925;-80
2021/04/13 13:46:24;;;;;;;;;;;2.70;98.00;;;;;;4807164;29;19932;-80
2021/04/13 13:48:52;;;;;;;;;;;2.60;98.00;;;;;;4821800;29;19929;-80
2021/04/13 13:51:24;;;;;;;;;;;2.80;96.50;;;;;;4807335;29;19936;-81
2021/04/13 13:54:15;;;;;;;;;;;3.20;96.50;;;;;;4799828;29;19924;-81
2021/04/13 13:56:42;;;;;;;;;;;3.90;96.60;;;;;;4804708;29;19936;-80
2021/04/13 13:59:27;;;;;;;;;;;4.40;95.90;;;;;;4785784;30;19937;-80
2021/04/13 14:02:07;;;;;;;;;;;4.80;93.30;;;;;;4786600;30;20514;-80
2021/04/13 14:04:37;;;;;;;;;;;5.10;94.10;;;;;;4786344;30;19925;-80
2021/04/13 14:07:05;;;;;;;;;;;5.10;89.00;;;;;;4782170;29;19932;-80
2021/04/13 14:09:33;;;;;;;;;;;5.00;90.30;;;;;;4787855;29;19936;-80
2021/04/13 14:12:19;;;;;;;;;;;4.80;90.00;;;;;;4776102;29;19929;-80
2021/04/13 14:14:46;;;;;;;;;;;5.20;91.60;;;;;;4785973;29;19936;-80
2021/04/13 14:17:15;;;;;;;;;;;5.30;87.70;;;;;;4786393;29;19926;-82
2021/04/13 14:19:43;;;;;;;;;;;5.20;90.60;;;;;;4796436;29;20368;-83
2021/04/13 14:22:12;;;;;;;;;;;5.20;88.60;;;;;;4808762;29;19929;-83
2021/04/13 14:24:50;;;;;;;;;;;5.30;90.60;;;;;;4797102;29;19924;-83
2021/04/13 14:27:22;;;;;;;;;;;5.30;84.30;;;;;;4818758;29;19929;-78
2021/04/13 14:29:49;;;;;;;;;;;5.30;90.70;;;;;;4786872;29;20287;-77
2021/04/13 14:32:17;;;;;;;;;;;5.30;86.00;;;;;;4806207;29;19929;-78
2021/04/13 14:34:44;;;;;;;;;;;5.30;83.50;;;;;;4803987;29;20331;-77
2021/04/13 14:37:12;;;;;;;;;;;5.20;80.20;;;;;;4787020;29;19952;-78
2021/04/13 14:39:44;;;;;;;;;;;4.70;88.40;;;;;;4803645;29;19929;-79
2021/04/13 14:42:13;;;;;;;;;;;5.00;89.40;;;;;;4803480;29;19932;-78
2021/04/13 14:44:40;;;;;;;;;;;5.20;84.20;;;;;;4796613;29;20576;-79
2021/04/13 14:47:10;;;;;;;;;;;5.10;83.60;;;;;;4821335;29;19936;-79
2021/04/13 14:49:50;;;;;;;;;;;5.10;86.90;;;;;;4822170;29;19932;-80
2021/04/13 14:52:17;;;;;;;;;;;5.10;83.00;;;;;;4821163;29;19932;-78
2021/04/13 14:54:44;;;;;;;;;;;4.80;84.80;;;;;;4794879;29;20379;-80
2021/04/13 14:57:12;;;;;;;;;;;4.70;84.40;;;;;;4803777;29;20299;-80
2021/04/13 14:59:45;;;;;;;;;;;4.70;85.50;;;;;;4786983;29;19941;-78
2021/04/13 15:02:14;;;;;;;;;;;4.60;85.60;;;;;;4803365;29;20399;-78
2021/04/13 15:04:41;;;;;;;;;;;4.60;91.70;;;;;;4801927;29;20375;-78
2021/04/13 15:07:09;;;;;;;;;;;4.60;94.90;;;;;;4801937;29;19936;-77
2021/04/13 15:09:38;;;;;;;;;;;4.50;94.20;;;;;;4803020;29;19933;-78
2021/04/13 15:12:06;;;;;;;;;;;4.40;96.70;;;;;;4802314;29;20144;-77
2021/04/13 15:14:49;;;;;;;;;;;4.30;96.80;;;;;;4802411;29;19936;-78
2021/04/13 15:17:18;;;;;;;;;;;4.20;95.90;;;;;;4802462;29;19929;-78
2021/04/13 15:19:45;;;;;;;;;;;3.80;96.70;;;;;;4802302;29;19932;-77
2021/04/13 15:22:12;;;;;;;;;;;3.70;97.50;;;;;;4802736;29;19936;-77
2021/04/13 15:24:41;;;;;;;;;;;3.60;98.60;;;;;;4802398;29;19929;-77
2021/04/13 15:27:09;;;;;;;;;;;3.50;98.70;;;;;;4802581;29;19925;-76
2021/04/13 15:29:36;;;;;;;;;;;3.50;94.50;;;;;;4786818;29;19936;-76
2021/04/13 15:32:04;;;;;;;;;;;3.50;94.50;;;;;;4801344;29;19933;-76
2021/04/13 15:34:49;;;;;;;;;;;3.40;93.80;;;;;;4798388;29;20295;-76
2021/04/13 15:37:19;;;;;;;;;;;3.20;93.90;;;;;;4803476;29;19943;-76
2021/04/13 15:39:46;;;;;;;;;;;3.30;95.00;;;;;;4784029;29;19929;-76
2021/04/13 15:42:16;;;;;;;;;;;3.40;96.50;;;;;;4800864;29;19952;-77
2021/04/13 15:44:46;;;;;;;;;;;3.40;94.00;;;;;;4808595;29;19928;-76
2021/04/13 15:47:18;;;;;;;;;;;3.40;94.20;;;;;;4808212;29;19933;-77